sensor_id;sensor_type;location;lat;lon;timestamp;P1;P2;P0
69222;PMS7003;56514;51.816;-0.026;2023-06-10T00:02:15;8.50;8.50;6.00
69222;PMS7003;56514;51.816;-0.026;2023-06-10T00:05:01;8.75;8.75;7.00
69222;PMS7003;56514;51.816;-0.026;2023-06-10T00:07:45;9.75;9.75;7.00
69222;PMS7003;56514;51.816;-0.026;2023-06-10T00:10:30;9.25;9.25;6.25
69222;PMS7003;56514;51.816;-0.026;2023-06-10T00:13:15;9.33;9.33;6.67
69222;PMS7003;56514;51.816;-0.026;2023-06-10T00:16:00;7.50;7.50;7.00
69222;PMS7003;56514;51.816;-0.026;2023-06-10T00:18:45;12.50;12.50;9.00
69222;PMS7003;56514;51.816;-0.026;2023-06-10T00:21:32;11.25;10.75;6.00
69222;PMS7003;56514;51.816;-0.026;2023-06-10T00:24:24;10.50;10.25;7.50
69222;PMS7003;56514;51.816;-0.026;2023-06-10T00:27:09;9.50;9.50;7.00
69222;PMS7003;56514;51.816;-0.026;2023-06-10T00:29:53;9.25;9.25;7.00
69222;PMS7003;56514;51.816;-0.026;2023-06-10T00:32:38;10.00;10.00;7.50
69222;PMS7003;56514;51.816;-0.026;2023-06-10T00:35:24;10.00;10.00;7.00
69222;PMS7003;56514;51.816;-0.026;2023-06-10T00:38:09;10.25;10.25;9.00
69222;PMS7003;56514;51.816;-0.026;2023-06-10T00:40:53;10.75;10.75;8.50
69222;PMS7003;56514;51.816;-0.026;2023-06-10T00:43:38;10.75;10.75;9.25
69222;PMS7003;56514;51.816;-0.026;2023-06-10T00:46:23;10.75;10.75;8.00
69222;PMS7003;56514;51.816;-0.026;2023-06-10T00:49:09;10.75;10.75;7.00
69222;PMS7003;56514;51.816;-0.026;2023-06-10T00:51:54;12.25;9.25;7.00
69222;PMS7003;56514;51.816;-0.026;2023-06-10T00:54:39;13.50;11.75;7.50
69222;PMS7003;56514;51.816;-0.026;2023-06-10T00:57:24;9.25;9.25;6.50
69222;PMS7003;56514;51.816;-0.026;2023-06-10T01:00:10;14.50;12.00;8.00
69222;PMS7003;56514;51.816;-0.026;2023-06-10T01:02:55;10.00;10.00;7.00
69222;PMS7003;56514;51.816;-0.026;2023-06-10T01:05:40;10.75;10.75;8.50
69222;PMS7003;56514;51.816;-0.026;2023-06-10T01:08:28;10.25;10.25;6.00
69222;PMS7003;56514;51.816;-0.026;2023-06-10T01:11:18;10.00;10.00;8.75
69222;PMS7003;56514;51.816;-0.026;2023-06-10T01:14:05;11.00;11.00;7.50
69222;PMS7003;56514;51.816;-0.026;2023-06-10T01:16:51;11.25;11.25;8.50
69222;PMS7003;56514;51.816;-0.026;2023-06-10T01:19:37;13.00;13.00;10.00
69222;PMS7003;56514;51.816;-0.026;2023-06-10T01:22:26;15.75;15.75;9.50
69222;PMS7003;56514;51.816;-0.026;2023-06-10T01:25:12;11.25;11.25;8.75
69222;PMS7003;56514;51.816;-0.026;2023-06-10T01:28:11;14.25;13.75;8.00
69222;PMS7003;56514;51.816;-0.026;2023-06-10T01:33:48;18.25;18.00;12.75
69222;PMS7003;56514;51.816;-0.026;2023-06-10T01:36:34;11.75;11.75;9.00
69222;PMS7003;56514;51.816;-0.026;2023-06-10T01:39:20;15.50;15.50;11.25
69222;PMS7003;56514;51.816;-0.026;2023-06-10T01:42:07;11.75;11.75;9.75
69222;PMS7003;56514;51.816;-0.026;2023-06-10T01:44:52;13.00;11.25;9.00
69222;PMS7003;56514;51.816;-0.026;2023-06-10T01:47:37;10.75;10.75;8.00
69222;PMS7003;56514;51.816;-0.026;2023-06-10T01:50:24;11.25;11.00;9.00
69222;PMS7003;56514;51.816;-0.026;2023-06-10T01:53:09;6.75;6.75;5.25
69222;PMS7003;56514;51.816;-0.026;2023-06-10T01:55:53;14.75;14.25;10.25
69222;PMS7003;56514;51.816;-0.026;2023-06-10T01:58:38;14.00;11.75;7.75
69222;PMS7003;56514;51.816;-0.026;2023-06-10T02:01:25;14.25;14.25;9.75
69222;PMS7003;56514;51.816;-0.026;2023-06-10T02:04:09;11.25;11.25;7.75
69222;PMS7003;56514;51.816;-0.026;2023-06-10T02:06:54;12.75;12.75;10.00
69222;PMS7003;56514;51.816;-0.026;2023-06-10T02:09:40;11.75;11.75;8.25
69222;PMS7003;56514;51.816;-0.026;2023-06-10T02:12:24;13.25;11.75;9.00
69222;PMS7003;56514;51.816;-0.026;2023-06-10T02:15:09;11.00;10.00;7.75
69222;PMS7003;56514;51.816;-0.026;2023-06-10T02:17:53;12.25;9.75;8.50
69222;PMS7003;56514;51.816;-0.026;2023-06-10T02:20:38;9.50;9.50;7.75
69222;PMS7003;56514;51.816;-0.026;2023-06-10T02:23:24;10.25;10.25;9.00
69222;PMS7003;56514;51.816;-0.026;2023-06-10T02:26:09;11.00;11.00;8.25
69222;PMS7003;56514;51.816;-0.026;2023-06-10T02:28:53;10.00;10.00;7.75
69222;PMS7003;56514;51.816;-0.026;2023-06-10T02:31:38;8.50;8.50;6.25
69222;PMS7003;56514;51.816;-0.026;2023-06-10T02:34:24;8.75;8.75;6.00
69222;PMS7003;56514;51.816;-0.026;2023-06-10T02:37:09;13.00;13.00;9.00
69222;PMS7003;56514;51.816;-0.026;2023-06-10T02:39:54;11.75;11.75;7.75
69222;PMS7003;56514;51.816;-0.026;2023-06-10T02:42:38;10.50;10.50;7.50
69222;PMS7003;56514;51.816;-0.026;2023-06-10T02:45:24;10.00;10.00;8.75
69222;PMS7003;56514;51.816;-0.026;2023-06-10T02:48:09;12.50;11.50;8.75
69222;PMS7003;56514;51.816;-0.026;2023-06-10T02:50:53;10.00;10.00;9.00
69222;PMS7003;56514;51.816;-0.026;2023-06-10T02:53:38;14.25;14.25;9.75
69222;PMS7003;56514;51.816;-0.026;2023-06-10T02:56:24;9.75;9.75;8.00
69222;PMS7003;56514;51.816;-0.026;2023-06-10T02:59:10;9.25;9.25;8.25
69222;PMS7003;56514;51.816;-0.026;2023-06-10T03:01:54;10.25;10.25;7.50
69222;PMS7003;56514;51.816;-0.026;2023-06-10T03:04:39;13.00;12.50;9.00
69222;PMS7003;56514;51.816;-0.026;2023-06-10T03:07:25;12.00;12.00;8.00
69222;PMS7003;56514;51.816;-0.026;2023-06-10T03:10:10;11.00;11.00;7.00
69222;PMS7003;56514;51.816;-0.026;2023-06-10T03:12:54;9.00;9.00;7.50
69222;PMS7003;56514;51.816;-0.026;2023-06-10T03:15:39;10.75;10.75;6.00
69222;PMS7003;56514;51.816;-0.026;2023-06-10T03:18:25;12.50;12.50;9.75
69222;PMS7003;56514;51.816;-0.026;2023-06-10T03:21:10;10.00;10.00;8.00
69222;PMS7003;56514;51.816;-0.026;2023-06-10T03:23:55;9.50;9.50;7.25
69222;PMS7003;56514;51.816;-0.026;2023-06-10T03:26:39;10.50;10.50;7.00
69222;PMS7003;56514;51.816;-0.026;2023-06-10T03:29:25;16.50;12.50;9.00
69222;PMS7003;56514;51.816;-0.026;2023-06-10T03:32:10;11.00;11.00;8.00
69222;PMS7003;56514;51.816;-0.026;2023-06-10T03:34:54;12.75;12.75;9.00
69222;PMS7003;56514;51.816;-0.026;2023-06-10T03:37:41;10.50;10.50;8.00
69222;PMS7003;56514;51.816;-0.026;2023-06-10T03:40:26;10.50;10.50;8.00
69222;PMS7003;56514;51.816;-0.026;2023-06-10T03:43:10;10.25;9.75;5.75
69222;PMS7003;56514;51.816;-0.026;2023-06-10T03:45:54;12.00;12.00;9.00
69222;PMS7003;56514;51.816;-0.026;2023-06-10T03:48:39;9.00;9.00;5.75
69222;PMS7003;56514;51.816;-0.026;2023-06-10T03:51:24;13.00;12.00;8.00
69222;PMS7003;56514;51.816;-0.026;2023-06-10T03:54:08;8.25;8.25;6.50
69222;PMS7003;56514;51.816;-0.026;2023-06-10T03:56:54;8.75;8.75;7.50
69222;PMS7003;56514;51.816;-0.026;2023-06-10T03:59:39;12.00;12.00;8.75
69222;PMS7003;56514;51.816;-0.026;2023-06-10T04:02:24;13.50;13.50;8.50
69222;PMS7003;56514;51.816;-0.026;2023-06-10T04:05:09;10.50;10.50;9.25
69222;PMS7003;56514;51.816;-0.026;2023-06-10T04:07:54;13.00;13.00;10.00
69222;PMS7003;56514;51.816;-0.026;2023-06-10T04:10:38;10.50;10.50;8.00
69222;PMS7003;56514;51.816;-0.026;2023-06-10T04:13:23;10.50;10.00;6.50
69222;PMS7003;56514;51.816;-0.026;2023-06-10T04:16:08;8.75;8.75;6.50
69222;PMS7003;56514;51.816;-0.026;2023-06-10T04:18:52;9.00;9.00;7.00
69222;PMS7003;56514;51.816;-0.026;2023-06-10T04:21:37;8.50;8.50;6.00
69222;PMS7003;56514;51.816;-0.026;2023-06-10T04:24:21;9.00;9.00;5.75
69222;PMS7003;56514;51.816;-0.026;2023-06-10T04:27:06;4.50;4.50;1.50
69222;PMS7003;56514;51.816;-0.026;2023-06-10T04:29:51;9.00;9.00;6.00
69222;PMS7003;56514;51.816;-0.026;2023-06-10T04:32:35;10.00;10.00;8.25
69222;PMS7003;56514;51.816;-0.026;2023-06-10T04:35:44;9.75;9.75;7.50
69222;PMS7003;56514;51.816;-0.026;2023-06-10T04:38:32;8.50;8.50;7.50
69222;PMS7003;56514;51.816;-0.026;2023-06-10T04:41:16;9.00;9.00;5.75
69222;PMS7003;56514;51.816;-0.026;2023-06-10T04:44:01;9.00;9.00;7.50
69222;PMS7003;56514;51.816;-0.026;2023-06-10T04:46:46;11.50;11.50;7.25
69222;PMS7003;56514;51.816;-0.026;2023-06-10T04:49:32;9.50;9.50;7.00
69222;PMS7003;56514;51.816;-0.026;2023-06-10T04:52:17;11.75;11.75;8.00
69222;PMS7003;56514;51.816;-0.026;2023-06-10T04:55:02;11.75;9.75;8.00
69222;PMS7003;56514;51.816;-0.026;2023-06-10T04:57:46;6.25;6.25;5.75
69222;PMS7003;56514;51.816;-0.026;2023-06-10T05:00:31;5.00;5.00;5.00
69222;PMS7003;56514;51.816;-0.026;2023-06-10T05:03:16;7.75;7.75;6.50
69222;PMS7003;56514;51.816;-0.026;2023-06-10T05:06:00;10.50;10.50;8.50
69222;PMS7003;56514;51.816;-0.026;2023-06-10T05:08:45;8.75;8.00;5.00
69222;PMS7003;56514;51.816;-0.026;2023-06-10T05:11:29;4.50;4.50;2.00
69222;PMS7003;56514;51.816;-0.026;2023-06-10T05:14:14;7.00;7.00;6.00
69222;PMS7003;56514;51.816;-0.026;2023-06-10T05:17:01;9.25;9.25;7.00
69222;PMS7003;56514;51.816;-0.026;2023-06-10T05:19:45;13.00;13.00;10.25
69222;PMS7003;56514;51.816;-0.026;2023-06-10T05:22:31;10.00;10.00;6.75
69222;PMS7003;56514;51.816;-0.026;2023-06-10T05:25:15;16.50;15.25;9.75
69222;PMS7003;56514;51.816;-0.026;2023-06-10T05:28:00;10.75;10.75;7.00
69222;PMS7003;56514;51.816;-0.026;2023-06-10T05:30:45;11.00;9.75;6.00
69222;PMS7003;56514;51.816;-0.026;2023-06-10T05:33:30;12.00;12.00;9.25
69222;PMS7003;56514;51.816;-0.026;2023-06-10T05:36:14;9.50;9.50;7.00
69222;PMS7003;56514;51.816;-0.026;2023-06-10T05:38:58;8.00;8.00;6.00
69222;PMS7003;56514;51.816;-0.026;2023-06-10T05:41:43;6.50;6.50;5.00
69222;PMS7003;56514;51.816;-0.026;2023-06-10T05:44:27;11.50;11.50;9.25
69222;PMS7003;56514;51.816;-0.026;2023-06-10T05:47:12;7.00;7.00;6.00
69222;PMS7003;56514;51.816;-0.026;2023-06-10T05:49:56;10.75;10.75;9.00
69222;PMS7003;56514;51.816;-0.026;2023-06-10T05:52:41;13.00;13.00;9.25
69222;PMS7003;56514;51.816;-0.026;2023-06-10T05:55:26;12.00;11.25;8.25
69222;PMS7003;56514;51.816;-0.026;2023-06-10T05:58:11;14.50;13.50;9.25
69222;PMS7003;56514;51.816;-0.026;2023-06-10T06:00:59;11.25;11.25;9.50
69222;PMS7003;56514;51.816;-0.026;2023-06-10T06:03:44;9.50;9.50;7.50
69222;PMS7003;56514;51.816;-0.026;2023-06-10T06:06:28;10.00;10.00;7.00
69222;PMS7003;56514;51.816;-0.026;2023-06-10T06:09:13;10.50;10.50;7.75
69222;PMS7003;56514;51.816;-0.026;2023-06-10T06:11:57;10.25;10.25;8.00
69222;PMS7003;56514;51.816;-0.026;2023-06-10T06:14:42;10.75;10.75;7.50
69222;PMS7003;56514;51.816;-0.026;2023-06-10T06:17:26;13.50;13.50;10.25
69222;PMS7003;56514;51.816;-0.026;2023-06-10T06:20:11;11.25;11.25;7.25
69222;PMS7003;56514;51.816;-0.026;2023-06-10T06:22:56;12.00;11.00;8.00
69222;PMS7003;56514;51.816;-0.026;2023-06-10T06:25:40;7.00;7.00;6.00
69222;PMS7003;56514;51.816;-0.026;2023-06-10T06:28:25;14.75;14.75;10.75
69222;PMS7003;56514;51.816;-0.026;2023-06-10T06:31:13;12.25;12.25;9.50
69222;PMS7003;56514;51.816;-0.026;2023-06-10T06:33:57;12.00;12.00;10.50
69222;PMS7003;56514;51.816;-0.026;2023-06-10T06:36:42;12.25;12.25;9.50
69222;PMS7003;56514;51.816;-0.026;2023-06-10T06:39:26;12.25;12.25;9.50
69222;PMS7003;56514;51.816;-0.026;2023-06-10T06:42:11;12.25;12.25;8.50
69222;PMS7003;56514;51.816;-0.026;2023-06-10T06:44:55;10.25;10.25;8.00
69222;PMS7003;56514;51.816;-0.026;2023-06-10T06:47:40;14.25;14.25;10.00
69222;PMS7003;56514;51.816;-0.026;2023-06-10T06:50:25;12.00;12.00;10.50
69222;PMS7003;56514;51.816;-0.026;2023-06-10T06:53:12;16.00;16.00;12.25
69222;PMS7003;56514;51.816;-0.026;2023-06-10T06:55:56;14.50;14.50;9.00
69222;PMS7003;56514;51.816;-0.026;2023-06-10T06:58:43;12.00;12.00;11.00
69222;PMS7003;56514;51.816;-0.026;2023-06-10T07:01:27;13.25;13.25;9.50
69222;PMS7003;56514;51.816;-0.026;2023-06-10T07:04:14;13.25;13.25;11.25
69222;PMS7003;56514;51.816;-0.026;2023-06-10T07:06:58;13.00;13.00;10.50
69222;PMS7003;56514;51.816;-0.026;2023-06-10T07:09:43;16.75;16.75;11.75
69222;PMS7003;56514;51.816;-0.026;2023-06-10T07:12:27;12.00;11.25;8.75
69222;PMS7003;56514;51.816;-0.026;2023-06-10T07:15:12;13.25;13.25;11.25
69222;PMS7003;56514;51.816;-0.026;2023-06-10T07:17:57;12.50;12.50;8.50
69222;PMS7003;56514;51.816;-0.026;2023-06-10T07:20:41;10.00;10.00;9.00
69222;PMS7003;56514;51.816;-0.026;2023-06-10T07:23:26;12.25;12.25;10.00
69222;PMS7003;56514;51.816;-0.026;2023-06-10T07:26:11;9.50;9.25;6.25
69222;PMS7003;56514;51.816;-0.026;2023-06-10T07:28:57;14.00;13.50;10.25
69222;PMS7003;56514;51.816;-0.026;2023-06-10T07:31:48;14.25;14.25;11.50
69222;PMS7003;56514;51.816;-0.026;2023-06-10T07:34:33;13.00;13.00;11.00
69222;PMS7003;56514;51.816;-0.026;2023-06-10T07:37:17;12.75;12.75;10.25
69222;PMS7003;56514;51.816;-0.026;2023-06-10T07:40:04;14.00;14.00;9.75
69222;PMS7003;56514;51.816;-0.026;2023-06-10T07:42:49;12.00;12.00;9.00
69222;PMS7003;56514;51.816;-0.026;2023-06-10T07:45:34;11.75;11.75;9.00
69222;PMS7003;56514;51.816;-0.026;2023-06-10T07:48:18;13.50;13.50;10.00
69222;PMS7003;56514;51.816;-0.026;2023-06-10T07:51:03;15.00;15.00;9.25
69222;PMS7003;56514;51.816;-0.026;2023-06-10T07:53:47;13.75;13.75;10.75
69222;PMS7003;56514;51.816;-0.026;2023-06-10T07:56:32;14.00;14.00;10.50
69222;PMS7003;56514;51.816;-0.026;2023-06-10T07:59:17;12.50;12.50;10.50
69222;PMS7003;56514;51.816;-0.026;2023-06-10T08:02:01;16.00;16.00;13.75
69222;PMS7003;56514;51.816;-0.026;2023-06-10T08:04:46;17.50;17.50;13.50
69222;PMS7003;56514;51.816;-0.026;2023-06-10T08:07:31;15.25;15.25;10.25
69222;PMS7003;56514;51.816;-0.026;2023-06-10T08:10:16;19.75;19.75;15.75
69222;PMS7003;56514;51.816;-0.026;2023-06-10T08:13:00;19.50;19.50;15.50
69222;PMS7003;56514;51.816;-0.026;2023-06-10T08:15:45;19.50;19.50;16.25
69222;PMS7003;56514;51.816;-0.026;2023-06-10T08:18:31;17.75;17.75;14.75
69222;PMS7003;56514;51.816;-0.026;2023-06-10T08:21:16;20.00;20.00;15.25
69222;PMS7003;56514;51.816;-0.026;2023-06-10T08:24:00;23.50;23.50;18.50
69222;PMS7003;56514;51.816;-0.026;2023-06-10T08:26:45;21.50;21.50;17.50
69222;PMS7003;56514;51.816;-0.026;2023-06-10T08:29:29;22.75;22.75;17.25
69222;PMS7003;56514;51.816;-0.026;2023-06-10T08:32:16;21.50;21.50;16.75
69222;PMS7003;56514;51.816;-0.026;2023-06-10T08:35:00;18.25;18.25;13.75
69222;PMS7003;56514;51.816;-0.026;2023-06-10T08:37:45;19.75;19.75;15.50
69222;PMS7003;56514;51.816;-0.026;2023-06-10T08:40:29;25.50;25.25;17.25
69222;PMS7003;56514;51.816;-0.026;2023-06-10T08:43:17;19.50;19.50;16.50
69222;PMS7003;56514;51.816;-0.026;2023-06-10T08:46:03;22.75;22.75;17.00
69222;PMS7003;56514;51.816;-0.026;2023-06-10T08:48:48;22.00;22.00;17.75
69222;PMS7003;56514;51.816;-0.026;2023-06-10T08:51:34;21.25;21.25;18.75
69222;PMS7003;56514;51.816;-0.026;2023-06-10T08:54:24;22.25;22.25;18.50
69222;PMS7003;56514;51.816;-0.026;2023-06-10T08:57:10;23.75;23.75;20.75
69222;PMS7003;56514;51.816;-0.026;2023-06-10T08:59:55;21.00;21.00;17.25
69222;PMS7003;56514;51.816;-0.026;2023-06-10T09:02:41;22.00;22.00;16.75
69222;PMS7003;56514;51.816;-0.026;2023-06-10T09:05:26;23.00;23.00;18.25
69222;PMS7003;56514;51.816;-0.026;2023-06-10T09:08:12;25.25;24.25;18.00
69222;PMS7003;56514;51.816;-0.026;2023-06-10T09:10:58;26.50;26.50;20.75
69222;PMS7003;56514;51.816;-0.026;2023-06-10T09:13:42;23.75;23.75;20.00
69222;PMS7003;56514;51.816;-0.026;2023-06-10T09:16:27;20.50;20.50;17.50
69222;PMS7003;56514;51.816;-0.026;2023-06-10T09:19:12;24.25;24.25;18.50
69222;PMS7003;56514;51.816;-0.026;2023-06-10T09:21:57;21.50;21.50;17.25
69222;PMS7003;56514;51.816;-0.026;2023-06-10T09:24:42;23.50;23.50;19.25
69222;PMS7003;56514;51.816;-0.026;2023-06-10T09:27:29;21.50;21.50;19.25
69222;PMS7003;56514;51.816;-0.026;2023-06-10T09:30:30;21.00;21.00;17.25
69222;PMS7003;56514;51.816;-0.026;2023-06-10T09:33:15;25.75;25.75;19.75
69222;PMS7003;56514;51.816;-0.026;2023-06-10T09:36:01;21.25;21.25;17.50
69222;PMS7003;56514;51.816;-0.026;2023-06-10T09:38:46;17.50;17.50;15.00
69222;PMS7003;56514;51.816;-0.026;2023-06-10T09:41:34;22.00;22.00;18.25
69222;PMS7003;56514;51.816;-0.026;2023-06-10T09:44:19;26.50;25.50;20.50
69222;PMS7003;56514;51.816;-0.026;2023-06-10T09:47:05;21.75;21.25;18.75
69222;PMS7003;56514;51.816;-0.026;2023-06-10T09:49:49;22.00;22.00;19.00
69222;PMS7003;56514;51.816;-0.026;2023-06-10T09:52:35;25.75;25.50;19.00
69222;PMS7003;56514;51.816;-0.026;2023-06-10T09:55:21;20.25;20.25;18.00
69222;PMS7003;56514;51.816;-0.026;2023-06-10T09:58:06;22.00;22.00;19.00
69222;PMS7003;56514;51.816;-0.026;2023-06-10T10:00:52;27.00;27.00;21.00
69222;PMS7003;56514;51.816;-0.026;2023-06-10T10:03:46;21.25;21.25;18.00
69222;PMS7003;56514;51.816;-0.026;2023-06-10T10:06:31;25.25;25.25;19.25
69222;PMS7003;56514;51.816;-0.026;2023-06-10T10:09:15;23.25;23.25;19.25
69222;PMS7003;56514;51.816;-0.026;2023-06-10T10:12:01;23.25;23.25;19.50
69222;PMS7003;56514;51.816;-0.026;2023-06-10T10:14:46;23.25;23.25;18.00
69222;PMS7003;56514;51.816;-0.026;2023-06-10T10:17:31;23.50;23.50;19.75
69222;PMS7003;56514;51.816;-0.026;2023-06-10T10:20:17;22.50;22.50;20.75
69222;PMS7003;56514;51.816;-0.026;2023-06-10T10:23:05;25.50;25.50;21.50
69222;PMS7003;56514;51.816;-0.026;2023-06-10T10:25:53;26.50;25.50;21.00
69222;PMS7003;56514;51.816;-0.026;2023-06-10T10:28:53;25.75;25.75;20.75
69222;PMS7003;56514;51.816;-0.026;2023-06-10T10:31:42;22.25;22.00;18.25
69222;PMS7003;56514;51.816;-0.026;2023-06-10T10:37:19;23.75;23.75;19.75
69222;PMS7003;56514;51.816;-0.026;2023-06-10T10:40:04;23.75;23.75;19.00
69222;PMS7003;56514;51.816;-0.026;2023-06-10T10:42:50;24.00;24.00;20.00
69222;PMS7003;56514;51.816;-0.026;2023-06-10T10:45:35;22.75;22.75;19.00
69222;PMS7003;56514;51.816;-0.026;2023-06-10T10:48:20;24.75;24.75;20.00
69222;PMS7003;56514;51.816;-0.026;2023-06-10T10:51:04;22.75;22.75;19.00
69222;PMS7003;56514;51.816;-0.026;2023-06-10T11:00:07;24.50;24.50;20.25
69222;PMS7003;56514;51.816;-0.026;2023-06-10T11:02:53;23.75;23.75;19.75
69222;PMS7003;56514;51.816;-0.026;2023-06-10T11:05:42;22.75;22.75;19.50
69222;PMS7003;56514;51.816;-0.026;2023-06-10T11:11:21;21.25;21.25;18.75
69222;PMS7003;56514;51.816;-0.026;2023-06-10T11:14:06;23.25;23.25;18.75
69222;PMS7003;56514;51.816;-0.026;2023-06-10T11:16:51;20.25;20.25;17.75
69222;PMS7003;56514;51.816;-0.026;2023-06-10T11:19:40;17.00;17.00;15.00
69222;PMS7003;56514;51.816;-0.026;2023-06-10T11:22:31;19.25;19.25;16.50
69222;PMS7003;56514;51.816;-0.026;2023-06-10T11:25:16;20.50;20.50;17.50
69222;PMS7003;56514;51.816;-0.026;2023-06-10T11:28:00;18.75;18.75;16.50
69222;PMS7003;56514;51.816;-0.026;2023-06-10T11:30:46;20.75;20.75;17.50
69222;PMS7003;56514;51.816;-0.026;2023-06-10T11:33:41;18.00;18.00;15.00
69222;PMS7003;56514;51.816;-0.026;2023-06-10T11:36:26;19.00;19.00;16.50
69222;PMS7003;56514;51.816;-0.026;2023-06-10T11:39:11;19.25;19.25;16.25
69222;PMS7003;56514;51.816;-0.026;2023-06-10T11:41:56;22.00;22.00;19.25
69222;PMS7003;56514;51.816;-0.026;2023-06-10T11:44:47;19.25;19.25;16.25
69222;PMS7003;56514;51.816;-0.026;2023-06-10T11:47:32;19.75;19.50;16.75
69222;PMS7003;56514;51.816;-0.026;2023-06-10T11:50:26;19.00;19.00;17.00
69222;PMS7003;56514;51.816;-0.026;2023-06-10T11:53:11;18.50;18.50;15.25
69222;PMS7003;56514;51.816;-0.026;2023-06-10T11:55:56;18.25;18.25;16.00
69222;PMS7003;56514;51.816;-0.026;2023-06-10T11:58:42;19.00;19.00;17.00
69222;PMS7003;56514;51.816;-0.026;2023-06-10T12:01:28;17.50;17.50;15.75
69222;PMS7003;56514;51.816;-0.026;2023-06-10T12:04:13;20.00;20.00;16.25
69222;PMS7003;56514;51.816;-0.026;2023-06-10T12:06:58;18.75;18.75;16.75
69222;PMS7003;56514;51.816;-0.026;2023-06-10T12:09:42;21.00;21.00;18.00
69222;PMS7003;56514;51.816;-0.026;2023-06-10T12:12:27;17.75;17.75;17.00
69222;PMS7003;56514;51.816;-0.026;2023-06-10T12:15:11;18.75;18.75;17.25
69222;PMS7003;56514;51.816;-0.026;2023-06-10T12:18:07;18.00;18.00;15.50
69222;PMS7003;56514;51.816;-0.026;2023-06-10T12:20:52;18.00;18.00;16.00
69222;PMS7003;56514;51.816;-0.026;2023-06-10T12:23:37;19.00;19.00;16.50
69222;PMS7003;56514;51.816;-0.026;2023-06-10T12:26:33;20.50;20.50;17.50
69222;PMS7003;56514;51.816;-0.026;2023-06-10T12:29:21;18.75;18.75;16.25
69222;PMS7003;56514;51.816;-0.026;2023-06-10T12:32:08;18.33;18.33;15.67
69222;PMS7003;56514;51.816;-0.026;2023-06-10T12:35:03;17.00;17.00;16.00
69222;PMS7003;56514;51.816;-0.026;2023-06-10T12:40:40;16.00;16.00;14.25
69222;PMS7003;56514;51.816;-0.026;2023-06-10T12:43:25;17.00;17.00;14.00
69222;PMS7003;56514;51.816;-0.026;2023-06-10T12:46:10;15.50;15.50;14.25
69222;PMS7003;56514;51.816;-0.026;2023-06-10T12:48:55;15.75;15.75;13.75
69222;PMS7003;56514;51.816;-0.026;2023-06-10T12:51:40;17.00;17.00;15.00
69222;PMS7003;56514;51.816;-0.026;2023-06-10T12:54:24;15.00;15.00;12.75
69222;PMS7003;56514;51.816;-0.026;2023-06-10T12:57:09;16.00;16.00;14.75
69222;PMS7003;56514;51.816;-0.026;2023-06-10T12:59:54;17.75;17.75;15.00
69222;PMS7003;56514;51.816;-0.026;2023-06-10T13:02:41;15.25;15.25;13.00
69222;PMS7003;56514;51.816;-0.026;2023-06-10T13:05:25;15.00;15.00;14.00
69222;PMS7003;56514;51.816;-0.026;2023-06-10T13:08:10;15.00;15.00;13.75
69222;PMS7003;56514;51.816;-0.026;2023-06-10T13:10:54;15.00;15.00;13.00
69222;PMS7003;56514;51.816;-0.026;2023-06-10T13:13:39;13.75;13.75;12.50
69222;PMS7003;56514;51.816;-0.026;2023-06-10T13:16:24;15.00;15.00;13.75
69222;PMS7003;56514;51.816;-0.026;2023-06-10T13:19:10;16.00;16.00;14.50
69222;PMS7003;56514;51.816;-0.026;2023-06-10T13:21:55;17.00;17.00;15.50
69222;PMS7003;56514;51.816;-0.026;2023-06-10T13:24:40;16.75;16.75;13.75
69222;PMS7003;56514;51.816;-0.026;2023-06-10T13:27:25;12.75;12.75;10.25
69222;PMS7003;56514;51.816;-0.026;2023-06-10T13:30:10;15.75;15.75;14.25
69222;PMS7003;56514;51.816;-0.026;2023-06-10T13:32:55;16.25;16.25;13.75
69222;PMS7003;56514;51.816;-0.026;2023-06-10T13:35:39;15.00;15.00;13.00
69222;PMS7003;56514;51.816;-0.026;2023-06-10T13:38:25;14.00;14.00;12.75
69222;PMS7003;56514;51.816;-0.026;2023-06-10T13:41:09;15.00;15.00;13.00
69222;PMS7003;56514;51.816;-0.026;2023-06-10T13:43:54;13.75;13.75;12.25
69222;PMS7003;56514;51.816;-0.026;2023-06-10T13:46:39;15.00;15.00;14.00
69222;PMS7003;56514;51.816;-0.026;2023-06-10T13:49:24;13.75;13.75;13.00
69222;PMS7003;56514;51.816;-0.026;2023-06-10T13:52:08;14.50;14.50;13.75
69222;PMS7003;56514;51.816;-0.026;2023-06-10T13:54:53;13.75;13.75;12.00
69222;PMS7003;56514;51.816;-0.026;2023-06-10T13:57:37;9.00;9.00;8.50
69222;PMS7003;56514;51.816;-0.026;2023-06-10T14:00:25;11.00;11.00;9.50
69222;PMS7003;56514;51.816;-0.026;2023-06-10T14:03:11;13.00;13.00;11.00
69222;PMS7003;56514;51.816;-0.026;2023-06-10T14:05:56;11.50;11.50;11.00
69222;PMS7003;56514;51.816;-0.026;2023-06-10T14:08:40;15.75;15.75;14.00
69222;PMS7003;56514;51.816;-0.026;2023-06-10T14:11:25;17.75;17.75;15.50
69222;PMS7003;56514;51.816;-0.026;2023-06-10T14:14:09;16.50;16.50;14.75
69222;PMS7003;56514;51.816;-0.026;2023-06-10T14:16:54;14.00;14.00;12.50
69222;PMS7003;56514;51.816;-0.026;2023-06-10T14:19:39;15.25;15.25;13.25
69222;PMS7003;56514;51.816;-0.026;2023-06-10T14:22:24;16.25;16.25;14.75
69222;PMS7003;56514;51.816;-0.026;2023-06-10T14:25:10;15.00;15.00;13.00
69222;PMS7003;56514;51.816;-0.026;2023-06-10T14:27:55;14.00;14.00;12.75
69222;PMS7003;56514;51.816;-0.026;2023-06-10T14:30:40;14.00;14.00;13.00
69222;PMS7003;56514;51.816;-0.026;2023-06-10T14:33:25;14.50;14.50;12.75
69222;PMS7003;56514;51.816;-0.026;2023-06-10T14:36:09;13.25;13.25;12.00
69222;PMS7003;56514;51.816;-0.026;2023-06-10T14:38:54;14.50;14.50;13.00
69222;PMS7003;56514;51.816;-0.026;2023-06-10T14:41:39;12.50;12.50;10.25
69222;PMS7003;56514;51.816;-0.026;2023-06-10T14:44:24;14.00;14.00;13.50
69222;PMS7003;56514;51.816;-0.026;2023-06-10T14:47:09;14.25;14.25;14.00
69222;PMS7003;56514;51.816;-0.026;2023-06-10T14:49:53;14.25;14.25;12.75
69222;PMS7003;56514;51.816;-0.026;2023-06-10T14:52:40;15.00;15.00;13.25
69222;PMS7003;56514;51.816;-0.026;2023-06-10T14:55:25;15.50;15.50;14.00
69222;PMS7003;56514;51.816;-0.026;2023-06-10T14:58:10;14.00;14.00;13.25
69222;PMS7003;56514;51.816;-0.026;2023-06-10T15:00:55;14.00;14.00;12.75
69222;PMS7003;56514;51.816;-0.026;2023-06-10T15:03:39;15.00;15.00;14.00
69222;PMS7003;56514;51.816;-0.026;2023-06-10T15:06:24;15.25;15.25;13.50
69222;PMS7003;56514;51.816;-0.026;2023-06-10T15:09:09;13.00;13.00;12.33
69222;PMS7003;56514;51.816;-0.026;2023-06-10T15:11:54;14.50;14.50;14.00
69222;PMS7003;56514;51.816;-0.026;2023-06-10T15:14:39;13.50;13.50;12.50
69222;PMS7003;56514;51.816;-0.026;2023-06-10T15:17:24;15.33;15.33;13.67
69222;PMS7003;56514;51.816;-0.026;2023-06-10T15:20:09;14.75;14.75;14.00
69222;PMS7003;56514;51.816;-0.026;2023-06-10T15:22:53;14.50;14.50;13.50
69222;PMS7003;56514;51.816;-0.026;2023-06-10T15:25:38;13.00;13.00;12.00
69222;PMS7003;56514;51.816;-0.026;2023-06-10T15:28:25;14.33;14.33;13.00
69222;PMS7003;56514;51.816;-0.026;2023-06-10T15:31:09;15.00;15.00;13.67
69222;PMS7003;56514;51.816;-0.026;2023-06-10T15:33:54;18.33;18.33;17.00
69222;PMS7003;56514;51.816;-0.026;2023-06-10T15:36:38;18.00;18.00;16.33
69222;PMS7003;56514;51.816;-0.026;2023-06-10T15:39:24;16.00;16.00;14.00
69222;PMS7003;56514;51.816;-0.026;2023-06-10T15:42:11;17.67;17.67;16.00